sensor_id;sensor_type;location;lat;lon;timestamp;temperature;humidity
5382;DHT22;2714;49.852;6.564;2023-02-15T00:01:20;1.70;99.90
5382;DHT22;2714;49.852;6.564;2023-02-15T00:05:20;1.60;99.90
5382;DHT22;2714;49.852;6.564;2023-02-15T00:09:21;1.50;99.90
5382;DHT22;2714;49.852;6.564;2023-02-15T00:13:21;1.40;99.90
5382;DHT22;2714;49.852;6.564;2023-02-15T00:17:22;1.20;99.90
5382;DHT22;2714;49.852;6.564;2023-02-15T00:21:22;1.10;99.90
5382;DHT22;2714;49.852;6.564;2023-02-15T00:25:23;1.20;99.90
5382;DHT22;2714;49.852;6.564;2023-02-15T00:29:24;1.30;99.90
5382;DHT22;2714;49.852;6.564;2023-02-15T00:33:24;1.30;99.90
5382;DHT22;2714;49.852;6.564;2023-02-15T00:37:26;1.30;99.90
5382;DHT22;2714;49.852;6.564;2023-02-15T00:41:26;1.30;99.90
5382;DHT22;2714;49.852;6.564;2023-02-15T00:45:27;1.30;99.90
5382;DHT22;2714;49.852;6.564;2023-02-15T00:49:27;1.30;99.90
5382;DHT22;2714;49.852;6.564;2023-02-15T00:53:28;1.30;99.90
5382;DHT22;2714;49.852;6.564;2023-02-15T00:57:29;1.30;99.90
5382;DHT22;2714;49.852;6.564;2023-02-15T01:01:30;1.30;99.90
5382;DHT22;2714;49.852;6.564;2023-02-15T01:05:31;1.40;99.90
5382;DHT22;2714;49.852;6.564;2023-02-15T01:09:32;1.30;99.90
5382;DHT22;2714;49.852;6.564;2023-02-15T01:13:33;1.10;99.90
5382;DHT22;2714;49.852;6.564;2023-02-15T01:17:34;1.10;99.90
5382;DHT22;2714;49.852;6.564;2023-02-15T01:21:35;1.00;99.90
5382;DHT22;2714;49.852;6.564;2023-02-15T01:25:36;0.90;99.90
5382;DHT22;2714;49.852;6.564;2023-02-15T01:29:36;0.80;99.90
5382;DHT22;2714;49.852;6.564;2023-02-15T01:33:37;0.70;99.90
5382;DHT22;2714;49.852;6.564;2023-02-15T01:37:38;0.90;99.90
5382;DHT22;2714;49.852;6.564;2023-02-15T01:41:38;0.90;99.90
5382;DHT22;2714;49.852;6.564;2023-02-15T01:45:39;0.90;99.90
5382;DHT22;2714;49.852;6.564;2023-02-15T01:49:41;0.70;99.90
5382;DHT22;2714;49.852;6.564;2023-02-15T01:54:10;0.60;99.90
5382;DHT22;2714;49.852;6.564;2023-02-15T01:58:11;0.60;99.90
5382;DHT22;2714;49.852;6.564;2023-02-15T02:02:13;0.60;99.90
5382;DHT22;2714;49.852;6.564;2023-02-15T02:06:15;0.60;99.90
5382;DHT22;2714;49.852;6.564;2023-02-15T02:10:19;0.60;99.90
5382;DHT22;2714;49.852;6.564;2023-02-15T02:14:20;0.70;99.90
5382;DHT22;2714;49.852;6.564;2023-02-15T02:18:29;0.70;99.90
5382;DHT22;2714;49.852;6.564;2023-02-15T02:44:18;0.60;99.90
5382;DHT22;2714;49.852;6.564;2023-02-15T02:48:22;0.60;99.90
5382;DHT22;2714;49.852;6.564;2023-02-15T02:52:37;0.40;99.90
5382;DHT22;2714;49.852;6.564;2023-02-15T02:56:43;0.40;99.90
5382;DHT22;2714;49.852;6.564;2023-02-15T03:05:04;0.50;99.90
5382;DHT22;2714;49.852;6.564;2023-02-15T03:09:11;0.50;99.90
5382;DHT22;2714;49.852;6.564;2023-02-15T03:13:22;0.60;99.90
5382;DHT22;2714;49.852;6.564;2023-02-15T03:17:26;0.70;99.90
5382;DHT22;2714;49.852;6.564;2023-02-15T03:21:34;0.70;99.90
5382;DHT22;2714;49.852;6.564;2023-02-15T03:25:42;0.70;99.90
5382;DHT22;2714;49.852;6.564;2023-02-15T03:29:48;0.90;99.90
5382;DHT22;2714;49.852;6.564;2023-02-15T03:33:55;1.00;99.90
5382;DHT22;2714;49.852;6.564;2023-02-15T03:38:00;1.00;99.90
5382;DHT22;2714;49.852;6.564;2023-02-15T03:42:11;0.80;99.90
5382;DHT22;2714;49.852;6.564;2023-02-15T03:46:26;0.90;99.90
5382;DHT22;2714;49.852;6.564;2023-02-15T03:50:31;1.00;99.90
5382;DHT22;2714;49.852;6.564;2023-02-15T03:54:51;0.90;99.90
5382;DHT22;2714;49.852;6.564;2023-02-15T03:58:51;1.00;99.90
5382;DHT22;2714;49.852;6.564;2023-02-15T04:03:42;0.70;99.90
5382;DHT22;2714;49.852;6.564;2023-02-15T04:07:44;0.60;99.90
5382;DHT22;2714;49.852;6.564;2023-02-15T04:11:44;0.60;99.90
5382;DHT22;2714;49.852;6.564;2023-02-15T04:15:45;0.60;99.90
5382;DHT22;2714;49.852;6.564;2023-02-15T04:20:05;0.70;99.90
5382;DHT22;2714;49.852;6.564;2023-02-15T04:24:24;0.80;99.90
5382;DHT22;2714;49.852;6.564;2023-02-15T04:28:43;0.80;99.90
5382;DHT22;2714;49.852;6.564;2023-02-15T04:32:44;0.60;99.90
5382;DHT22;2714;49.852;6.564;2023-02-15T04:36:45;0.50;99.90
5382;DHT22;2714;49.852;6.564;2023-02-15T04:40:50;0.30;99.90
5382;DHT22;2714;49.852;6.564;2023-02-15T04:44:51;0.20;99.90
5382;DHT22;2714;49.852;6.564;2023-02-15T04:48:52;0.30;99.90
5382;DHT22;2714;49.852;6.564;2023-02-15T04:52:53;0.50;99.90
5382;DHT22;2714;49.852;6.564;2023-02-15T04:56:53;0.50;99.90
5382;DHT22;2714;49.852;6.564;2023-02-15T05:00:57;0.50;99.90
5382;DHT22;2714;49.852;6.564;2023-02-15T05:04:58;0.40;99.90
5382;DHT22;2714;49.852;6.564;2023-02-15T05:08:59;0.50;99.90
5382;DHT22;2714;49.852;6.564;2023-02-15T05:12:59;0.60;99.90
5382;DHT22;2714;49.852;6.564;2023-02-15T05:17:00;0.40;99.90
5382;DHT22;2714;49.852;6.564;2023-02-15T05:21:01;0.30;99.90
5382;DHT22;2714;49.852;6.564;2023-02-15T05:25:02;0.30;99.90
5382;DHT22;2714;49.852;6.564;2023-02-15T05:29:21;0.40;99.90
5382;DHT22;2714;49.852;6.564;2023-02-15T05:33:21;0.40;99.90
5382;DHT22;2714;49.852;6.564;2023-02-15T05:37:22;0.40;99.90
5382;DHT22;2714;49.852;6.564;2023-02-15T05:41:23;0.30;99.90
5382;DHT22;2714;49.852;6.564;2023-02-15T05:45:24;0.20;99.90
5382;DHT22;2714;49.852;6.564;2023-02-15T05:49:25;0.30;99.90
5382;DHT22;2714;49.852;6.564;2023-02-15T05:53:27;0.30;99.90
5382;DHT22;2714;49.852;6.564;2023-02-15T05:57:28;0.30;99.90
5382;DHT22;2714;49.852;6.564;2023-02-15T06:01:28;0.10;99.90
5382;DHT22;2714;49.852;6.564;2023-02-15T06:05:29;-0.10;99.90
5382;DHT22;2714;49.852;6.564;2023-02-15T06:09:29;-0.20;99.90
5382;DHT22;2714;49.852;6.564;2023-02-15T06:13:30;-0.30;99.90
5382;DHT22;2714;49.852;6.564;2023-02-15T06:17:31;-0.10;99.90
5382;DHT22;2714;49.852;6.564;2023-02-15T06:21:31;-0.20;99.90
5382;DHT22;2714;49.852;6.564;2023-02-15T06:25:32;-0.10;99.90
5382;DHT22;2714;49.852;6.564;2023-02-15T06:29:32;-0.40;99.90
5382;DHT22;2714;49.852;6.564;2023-02-15T06:33:33;-0.50;99.90
5382;DHT22;2714;49.852;6.564;2023-02-15T06:37:34;-0.30;99.90
5382;DHT22;2714;49.852;6.564;2023-02-15T06:41:34;-0.20;99.90
5382;DHT22;2714;49.852;6.564;2023-02-15T06:45:35;-0.20;99.90
5382;DHT22;2714;49.852;6.564;2023-02-15T06:49:36;-0.40;99.90
5382;DHT22;2714;49.852;6.564;2023-02-15T06:53:37;-0.50;99.90
5382;DHT22;2714;49.852;6.564;2023-02-15T06:57:37;-0.60;99.90
5382;DHT22;2714;49.852;6.564;2023-02-15T07:01:38;-0.50;99.90
5382;DHT22;2714;49.852;6.564;2023-02-15T07:05:39;-0.50;99.90
5382;DHT22;2714;49.852;6.564;2023-02-15T07:09:39;-0.60;99.90
5382;DHT22;2714;49.852;6.564;2023-02-15T07:13:40;-0.50;99.90
5382;DHT22;2714;49.852;6.564;2023-02-15T07:17:43;-0.60;99.90
5382;DHT22;2714;49.852;6.564;2023-02-15T07:21:44;-0.70;99.90
5382;DHT22;2714;49.852;6.564;2023-02-15T07:25:45;-0.70;99.90
5382;DHT22;2714;49.852;6.564;2023-02-15T07:29:46;-0.50;99.90
5382;DHT22;2714;49.852;6.564;2023-02-15T07:33:47;-0.30;99.90
5382;DHT22;2714;49.852;6.564;2023-02-15T07:37:47;-0.10;99.90
5382;DHT22;2714;49.852;6.564;2023-02-15T07:41:48;-0.10;99.90
5382;DHT22;2714;49.852;6.564;2023-02-15T07:45:48;0.00;99.90
5382;DHT22;2714;49.852;6.564;2023-02-15T07:49:49;0.20;99.90
5382;DHT22;2714;49.852;6.564;2023-02-15T07:53:49;-0.10;99.90
5382;DHT22;2714;49.852;6.564;2023-02-15T07:57:51;-0.20;99.90
5382;DHT22;2714;49.852;6.564;2023-02-15T08:01:54;-0.10;99.90
5382;DHT22;2714;49.852;6.564;2023-02-15T08:05:58;-0.20;99.90
5382;DHT22;2714;49.852;6.564;2023-02-15T08:09:59;-0.10;99.90
5382;DHT22;2714;49.852;6.564;2023-02-15T08:18:05;0.60;99.90
5382;DHT22;2714;49.852;6.564;2023-02-15T08:22:07;1.10;99.90
5382;DHT22;2714;49.852;6.564;2023-02-15T08:26:08;1.40;99.90
5382;DHT22;2714;49.852;6.564;2023-02-15T08:30:09;1.70;99.90
5382;DHT22;2714;49.852;6.564;2023-02-15T08:34:12;2.00;99.90
5382;DHT22;2714;49.852;6.564;2023-02-15T08:38:13;2.20;99.90
5382;DHT22;2714;49.852;6.564;2023-02-15T08:42:14;2.40;99.90
5382;DHT22;2714;49.852;6.564;2023-02-15T08:46:15;3.00;99.90
5382;DHT22;2714;49.852;6.564;2023-02-15T08:50:17;3.50;99.90
5382;DHT22;2714;49.852;6.564;2023-02-15T08:54:19;3.90;99.90
5382;DHT22;2714;49.852;6.564;2023-02-15T08:58:20;4.00;99.90
5382;DHT22;2714;49.852;6.564;2023-02-15T09:02:21;4.10;99.90
5382;DHT22;2714;49.852;6.564;2023-02-15T09:06:22;4.90;99.90
5382;DHT22;2714;49.852;6.564;2023-02-15T09:10:23;5.50;99.90
5382;DHT22;2714;49.852;6.564;2023-02-15T09:14:23;5.90;99.90
5382;DHT22;2714;49.852;6.564;2023-02-15T09:18:25;6.70;99.90
5382;DHT22;2714;49.852;6.564;2023-02-15T09:22:25;6.70;99.90
5382;DHT22;2714;49.852;6.564;2023-02-15T09:26:31;6.20;99.90
5382;DHT22;2714;49.852;6.564;2023-02-15T09:30:33;5.70;99.90
5382;DHT22;2714;49.852;6.564;2023-02-15T09:34:33;5.40;99.90
5382;DHT22;2714;49.852;6.564;2023-02-15T09:38:34;5.60;99.90
5382;DHT22;2714;49.852;6.564;2023-02-15T09:51:41;5.60;99.90
5382;DHT22;2714;49.852;6.564;2023-02-15T10:04:15;5.50;99.90
5382;DHT22;2714;49.852;6.564;2023-02-15T10:17:11;10.80;99.90
5382;DHT22;2714;49.852;6.564;2023-02-15T10:26:07;15.20;99.90
5382;DHT22;2714;49.852;6.564;2023-02-15T10:30:50;14.20;99.90
5382;DHT22;2714;49.852;6.564;2023-02-15T10:35:20;13.60;99.90
5382;DHT22;2714;49.852;6.564;2023-02-15T10:39:32;15.00;99.60
5382;DHT22;2714;49.852;6.564;2023-02-15T10:48:09;18.00;97.00
5382;DHT22;2714;49.852;6.564;2023-02-15T11:09:51;20.60;83.80
5382;DHT22;2714;49.852;6.564;2023-02-15T11:14:02;19.80;81.60
5382;DHT22;2714;49.852;6.564;2023-02-15T11:22:23;18.00;81.10
5382;DHT22;2714;49.852;6.564;2023-02-15T11:26:28;17.30;82.70
5382;DHT22;2714;49.852;6.564;2023-02-15T11:30:51;17.40;84.60
5382;DHT22;2714;49.852;6.564;2023-02-15T11:39:02;17.30;86.60
5382;DHT22;2714;49.852;6.564;2023-02-15T11:43:13;17.50;82.90
5382;DHT22;2714;49.852;6.564;2023-02-15T11:47:15;18.80;83.40
5382;DHT22;2714;49.852;6.564;2023-02-15T11:51:18;17.90;80.10
5382;DHT22;2714;49.852;6.564;2023-02-15T11:55:22;15.20;85.90
5382;DHT22;2714;49.852;6.564;2023-02-15T11:59:30;13.20;94.70
5382;DHT22;2714;49.852;6.564;2023-02-15T12:08:03;11.80;99.90
5382;DHT22;2714;49.852;6.564;2023-02-15T12:12:26;11.10;99.90
5382;DHT22;2714;49.852;6.564;2023-02-15T12:16:29;10.60;99.90
5382;DHT22;2714;49.852;6.564;2023-02-15T12:20:32;10.30;99.90
5382;DHT22;2714;49.852;6.564;2023-02-15T12:24:38;10.10;99.90
5382;DHT22;2714;49.852;6.564;2023-02-15T12:28:48;9.20;99.90
5382;DHT22;2714;49.852;6.564;2023-02-15T12:32:54;8.90;99.90
5382;DHT22;2714;49.852;6.564;2023-02-15T12:37:00;8.70;99.90
5382;DHT22;2714;49.852;6.564;2023-02-15T12:41:22;8.60;99.90
5382;DHT22;2714;49.852;6.564;2023-02-15T12:45:32;8.40;99.90
5382;DHT22;2714;49.852;6.564;2023-02-15T12:49:37;8.30;99.90
5382;DHT22;2714;49.852;6.564;2023-02-15T12:53:38;8.30;99.90
5382;DHT22;2714;49.852;6.564;2023-02-15T12:57:39;8.00;99.90
5382;DHT22;2714;49.852;6.564;2023-02-15T13:01:40;7.80;99.90
5382;DHT22;2714;49.852;6.564;2023-02-15T13:05:44;7.80;99.90
5382;DHT22;2714;49.852;6.564;2023-02-15T13:09:47;7.70;99.90
5382;DHT22;2714;49.852;6.564;2023-02-15T13:13:52;7.70;99.90
5382;DHT22;2714;49.852;6.564;2023-02-15T13:17:55;7.70;99.90
5382;DHT22;2714;49.852;6.564;2023-02-15T13:21:57;7.80;99.90
5382;DHT22;2714;49.852;6.564;2023-02-15T13:26:04;7.70;99.90
5382;DHT22;2714;49.852;6.564;2023-02-15T13:30:27;8.00;99.90
5382;DHT22;2714;49.852;6.564;2023-02-15T13:34:36;8.10;99.90
5382;DHT22;2714;49.852;6.564;2023-02-15T13:38:43;8.20;99.90
5382;DHT22;2714;49.852;6.564;2023-02-15T13:42:50;8.20;99.90
5382;DHT22;2714;49.852;6.564;2023-02-15T13:47:26;8.10;99.90
5382;DHT22;2714;49.852;6.564;2023-02-15T14:14:03;9.00;99.90
5382;DHT22;2714;49.852;6.564;2023-02-15T14:18:25;9.10;99.90
5382;DHT22;2714;49.852;6.564;2023-02-15T14:22:46;9.20;99.90
5382;DHT22;2714;49.852;6.564;2023-02-15T14:27:10;9.30;99.90
5382;DHT22;2714;49.852;6.564;2023-02-15T14:31:14;9.20;99.90
5382;DHT22;2714;49.852;6.564;2023-02-15T14:35:18;9.20;99.90
5382;DHT22;2714;49.852;6.564;2023-02-15T14:39:29;9.30;99.90
5382;DHT22;2714;49.852;6.564;2023-02-15T14:44:19;9.20;99.90
5382;DHT22;2714;49.852;6.564;2023-02-15T14:48:35;9.00;99.90
5382;DHT22;2714;49.852;6.564;2023-02-15T14:57:38;8.80;99.90
5382;DHT22;2714;49.852;6.564;2023-02-15T15:01:40;8.70;99.90
5382;DHT22;2714;49.852;6.564;2023-02-15T15:05:53;8.70;99.90
5382;DHT22;2714;49.852;6.564;2023-02-15T15:18:46;8.80;99.90
5382;DHT22;2714;49.852;6.564;2023-02-15T15:22:46;8.80;99.90
5382;DHT22;2714;49.852;6.564;2023-02-15T15:26:48;8.80;99.90
5382;DHT22;2714;49.852;6.564;2023-02-15T15:30:51;8.90;99.90
5382;DHT22;2714;49.852;6.564;2023-02-15T15:35:13;8.90;99.90
5382;DHT22;2714;49.852;6.564;2023-02-15T15:48:23;8.70;99.90
5382;DHT22;2714;49.852;6.564;2023-02-15T15:52:28;8.50;99.90
5382;DHT22;2714;49.852;6.564;2023-02-15T15:56:32;8.40;99.90
5382;DHT22;2714;49.852;6.564;2023-02-15T16:00:52;8.40;99.90
5382;DHT22;2714;49.852;6.564;2023-02-15T16:04:53;8.20;99.90
5382;DHT22;2714;49.852;6.564;2023-02-15T16:08:54;8.10;99.90
5382;DHT22;2714;49.852;6.564;2023-02-15T16:12:55;8.10;99.90
5382;DHT22;2714;49.852;6.564;2023-02-15T16:16:59;8.00;99.90
5382;DHT22;2714;49.852;6.564;2023-02-15T16:21:01;7.80;99.90
5382;DHT22;2714;49.852;6.564;2023-02-15T16:25:30;7.50;99.90
5382;DHT22;2714;49.852;6.564;2023-02-15T16:29:33;7.30;99.90
5382;DHT22;2714;49.852;6.564;2023-02-15T16:33:39;7.10;99.90
5382;DHT22;2714;49.852;6.564;2023-02-15T16:37:40;7.10;99.90
5382;DHT22;2714;49.852;6.564;2023-02-15T16:41:41;7.00;99.90
5382;DHT22;2714;49.852;6.564;2023-02-15T16:45:46;6.80;99.90
5382;DHT22;2714;49.852;6.564;2023-02-15T16:49:48;6.60;99.90
5382;DHT22;2714;49.852;6.564;2023-02-15T16:53:51;6.40;99.90
5382;DHT22;2714;49.852;6.564;2023-02-15T16:57:57;6.30;99.90
5382;DHT22;2714;49.852;6.564;2023-02-15T17:01:59;6.30;99.90
5382;DHT22;2714;49.852;6.564;2023-02-15T17:06:04;6.20;99.90
5382;DHT22;2714;49.852;6.564;2023-02-15T17:10:39;6.30;99.90
5382;DHT22;2714;49.852;6.564;2023-02-15T17:14:42;6.20;99.90
5382;DHT22;2714;49.852;6.564;2023-02-15T17:18:46;6.10;99.90
5382;DHT22;2714;49.852;6.564;2023-02-15T17:22:47;6.00;99.90
5382;DHT22;2714;49.852;6.564;2023-02-15T17:26:51;5.80;99.90
5382;DHT22;2714;49.852;6.564;2023-02-15T17:31:06;5.80;99.90
5382;DHT22;2714;49.852;6.564;2023-02-15T17:35:19;5.80;99.90
5382;DHT22;2714;49.852;6.564;2023-02-15T17:39:21;5.60;99.90
5382;DHT22;2714;49.852;6.564;2023-02-15T17:43:22;5.30;99.90
5382;DHT22;2714;49.852;6.564;2023-02-15T17:47:24;5.00;99.90
5382;DHT22;2714;49.852;6.564;2023-02-15T17:51:27;4.90;99.90
5382;DHT22;2714;49.852;6.564;2023-02-15T17:55:27;4.80;99.90
5382;DHT22;2714;49.852;6.564;2023-02-15T17:59:43;4.70;99.90
5382;DHT22;2714;49.852;6.564;2023-02-15T18:04:02;4.70;99.90
5382;DHT22;2714;49.852;6.564;2023-02-15T18:08:26;4.60;99.90
5382;DHT22;2714;49.852;6.564;2023-02-15T18:12:45;4.50;99.90
5382;DHT22;2714;49.852;6.564;2023-02-15T18:16:46;4.30;99.90
5382;DHT22;2714;49.852;6.564;2023-02-15T18:20:46;4.20;99.90
5382;DHT22;2714;49.852;6.564;2023-02-15T18:24:47;4.10;99.90
5382;DHT22;2714;49.852;6.564;2023-02-15T18:28:49;4.10;99.90
5382;DHT22;2714;49.852;6.564;2023-02-15T18:32:56;4.20;99.90
5382;DHT22;2714;49.852;6.564;2023-02-15T18:36:59;4.20;99.90
5382;DHT22;2714;49.852;6.564;2023-02-15T18:41:02;4.30;99.90
5382;DHT22;2714;49.852;6.564;2023-02-15T18:45:17;4.30;99.90
5382;DHT22;2714;49.852;6.564;2023-02-15T18:49:18;4.20;99.90
5382;DHT22;2714;49.852;6.564;2023-02-15T18:53:20;4.10;99.90
5382;DHT22;2714;49.852;6.564;2023-02-15T18:57:20;4.00;99.90
5382;DHT22;2714;49.852;6.564;2023-02-15T19:01:21;4.00;99.90
5382;DHT22;2714;49.852;6.564;2023-02-15T19:05:22;4.00;99.90
5382;DHT22;2714;49.852;6.564;2023-02-15T19:09:23;4.10;99.90
5382;DHT22;2714;49.852;6.564;2023-02-15T19:13:25;4.20;99.90
5382;DHT22;2714;49.852;6.564;2023-02-15T19:17:26;4.30;99.90
5382;DHT22;2714;49.852;6.564;2023-02-15T19:21:29;4.20;99.90
5382;DHT22;2714;49.852;6.564;2023-02-15T19:25:31;4.20;99.90
5382;DHT22;2714;49.852;6.564;2023-02-15T19:29:33;4.20;99.90
5382;DHT22;2714;49.852;6.564;2023-02-15T19:33:33;4.20;99.90
5382;DHT22;2714;49.852;6.564;2023-02-15T19:37:37;4.30;99.90
5382;DHT22;2714;49.852;6.564;2023-02-15T19:41:39;4.20;99.90
5382;DHT22;2714;49.852;6.564;2023-02-15T19:45:42;4.10;99.90
5382;DHT22;2714;49.852;6.564;2023-02-15T19:49:42;4.00;99.90
5382;DHT22;2714;49.852;6.564;2023-02-15T19:53:45;4.00;99.90
5382;DHT22;2714;49.852;6.564;2023-02-15T19:57:51;4.00;99.90
5382;DHT22;2714;49.852;6.564;2023-02-15T20:01:52;3.80;99.90
5382;DHT22;2714;49.852;6.564;2023-02-15T20:05:52;3.80;99.90
5382;DHT22;2714;49.852;6.564;2023-02-15T20:09:53;3.70;99.90
5382;DHT22;2714;49.852;6.564;2023-02-15T20:13:54;3.80;99.90
5382;DHT22;2714;49.852;6.564;2023-02-15T20:17:56;3.80;99.90
5382;DHT22;2714;49.852;6.564;2023-02-15T20:21:57;3.60;99.90
5382;DHT22;2714;49.852;6.564;2023-02-15T20:26:00;3.50;99.90
5382;DHT22;2714;49.852;6.564;2023-02-15T20:30:01;3.50;99.90
5382;DHT22;2714;49.852;6.564;2023-02-15T20:34:01;3.50;99.90
5382;DHT22;2714;49.852;6.564;2023-02-15T20:38:03;3.30;99.90
5382;DHT22;2714;49.852;6.564;2023-02-15T20:42:04;3.30;99.90
5382;DHT22;2714;49.852;6.564;2023-02-15T20:46:05;3.20;99.90
5382;DHT22;2714;49.852;6.564;2023-02-15T20:50:06;3.10;99.90
5382;DHT22;2714;49.852;6.564;2023-02-15T20:54:16;3.10;99.90
5382;DHT22;2714;49.852;6.564;2023-02-15T21:02:19;3.00;99.90
5382;DHT22;2714;49.852;6.564;2023-02-15T21:06:22;3.00;99.90
5382;DHT22;2714;49.852;6.564;2023-02-15T21:10:30;2.80;99.90
5382;DHT22;2714;49.852;6.564;2023-02-15T21:14:33;2.80;99.90
5382;DHT22;2714;49.852;6.564;2023-02-15T21:18:34;2.80;99.90
5382;DHT22;2714;49.852;6.564;2023-02-15T21:22:34;2.80;99.90
5382;DHT22;2714;49.852;6.564;2023-02-15T21:26:35;2.80;99.90
5382;DHT22;2714;49.852;6.564;2023-02-15T21:30:36;2.70;99.90
5382;DHT22;2714;49.852;6.564;2023-02-15T21:34:36;2.70;99.90
5382;DHT22;2714;49.852;6.564;2023-02-15T21:38:37;2.70;99.90
5382;DHT22;2714;49.852;6.564;2023-02-15T21:42:37;2.70;99.90
5382;DHT22;2714;49.852;6.564;2023-02-15T21:46:56;2.80;99.90
5382;DHT22;2714;49.852;6.564;2023-02-15T21:51:15;2.70;99.90
5382;DHT22;2714;49.852;6.564;2023-02-15T21:55:35;2.80;99.90
5382;DHT22;2714;49.852;6.564;2023-02-15T21:59:35;2.80;99.90
5382;DHT22;2714;49.852;6.564;2023-02-15T22:03:36;2.80;99.90
5382;DHT22;2714;49.852;6.564;2023-02-15T22:07:37;2.70;99.90
5382;DHT22;2714;49.852;6.564;2023-02-15T22:11:38;2.70;99.90
5382;DHT22;2714;49.852;6.564;2023-02-15T22:15:38;2.80;99.90
5382;DHT22;2714;49.852;6.564;2023-02-15T22:19:39;2.50;99.90
5382;DHT22;2714;49.852;6.564;2023-02-15T22:23:39;2.40;99.90
5382;DHT22;2714;49.852;6.564;2023-02-15T22:27:41;2.40;99.90
5382;DHT22;2714;49.852;6.564;2023-02-15T22:31:42;2.40;99.90
5382;DHT22;2714;49.852;6.564;2023-02-15T22:35:43;2.40;99.90
5382;DHT22;2714;49.852;6.564;2023-02-15T22:39:44;2.30;99.90
5382;DHT22;2714;49.852;6.564;2023-02-15T22:43:46;2.40;99.90
5382;DHT22;2714;49.852;6.564;2023-02-15T22:47:48;2.40;99.90
5382;DHT22;2714;49.852;6.564;2023-02-15T22:51:49;2.30;99.90
5382;DHT22;2714;49.852;6.564;2023-02-15T22:55:51;2.20;99.90
5382;DHT22;2714;49.852;6.564;2023-02-15T22:59:52;2.20;99.90
5382;DHT22;2714;49.852;6.564;2023-02-15T23:03:53;2.20;99.90
5382;DHT22;2714;49.852;6.564;2023-02-15T23:07:54;2.00;99.90
5382;DHT22;2714;49.852;6.564;2023-02-15T23:11:56;1.90;99.90
5382;DHT22;2714;49.852;6.564;2023-02-15T23:15:59;2.00;99.90
5382;DHT22;2714;49.852;6.564;2023-02-15T23:20:00;1.90;99.90
5382;DHT22;2714;49.852;6.564;2023-02-15T23:24:16;1.90;99.90
5382;DHT22;2714;49.852;6.564;2023-02-15T23:28:28;1.70;99.90
5382;DHT22;2714;49.852;6.564;2023-02-15T23:32:30;1.60;99.90
5382;DHT22;2714;49.852;6.564;2023-02-15T23:36:36;1.70;99.90
5382;DHT22;2714;49.852;6.564;2023-02-15T23:40:37;1.70;99.90
5382;DHT22;2714;49.852;6.564;2023-02-15T23:44:56;1.60;99.90
5382;DHT22;2714;49.852;6.564;2023-02-15T23:48:56;1.60;99.90
5382;DHT22;2714;49.852;6.564;2023-02-15T23:52:57;1.60;99.90
5382;DHT22;2714;49.852;6.564;2023-02-15T23:56:59;1.50;99.90
